createdAt,value
2018-03-27T00:00:19.608Z,2.2
2018-03-27T00:02:19.342Z,2.9
2018-03-27T00:04:19.080Z,6.5
2018-03-27T00:06:19.692Z,2.2
2018-03-27T00:08:19.444Z,3.9
2018-03-27T00:10:18.747Z,3.3
2018-03-27T00:12:19.515Z,2.5
2018-03-27T00:14:19.265Z,4.7
2018-03-27T00:16:18.836Z,4
2018-03-27T00:18:19.677Z,6.3
2018-03-27T00:20:19.431Z,4.4
2018-03-27T00:22:19.194Z,4.2
2018-03-27T00:24:18.970Z,6.1
2018-03-27T00:26:19.578Z,5
2018-03-27T00:28:19.314Z,4.6
2018-03-27T00:30:19.056Z,3.5
2018-03-27T00:32:18.835Z,4.2
2018-03-27T00:34:19.616Z,7.2
2018-03-27T00:36:19.182Z,7.1
2018-03-27T00:38:18.933Z,5.3
2018-03-27T00:40:19.166Z,4.9
2018-03-27T00:42:18.926Z,5.4
2018-03-27T00:44:19.683Z,2.8
2018-03-27T00:46:19.324Z,4.4
2018-03-27T00:48:19.059Z,2.6
2018-03-27T00:50:18.823Z,3.9
2018-03-27T00:52:19.571Z,4.5
2018-03-27T00:54:19.350Z,9.4
2018-03-27T00:56:18.830Z,2.5
2018-03-27T00:58:19.587Z,3.8
2018-03-27T01:00:19.416Z,2.1
2018-03-27T01:02:19.175Z,2.6
2018-03-27T01:04:18.934Z,4.6
2018-03-27T01:06:19.237Z,2.6
2018-03-27T01:08:18.979Z,3.8
2018-03-27T01:10:19.232Z,3.2
2018-03-27T01:12:19.001Z,2.5
2018-03-27T01:14:18.790Z,1.9
2018-03-27T01:16:18.884Z,2.9
2018-03-27T01:18:18.728Z,2.3
2018-03-27T01:20:19.528Z,4.6
2018-03-27T01:22:19.296Z,3.9
2018-03-27T01:24:19.043Z,3
2018-03-27T01:26:19.642Z,4.6
2018-03-27T01:28:19.396Z,4.8
2018-03-27T01:30:19.248Z,3.4
2018-03-27T01:32:19.006Z,2.1
2018-03-27T01:34:18.788Z,3.9
2018-03-27T01:36:19.361Z,3.7
2018-03-27T01:38:19.104Z,7.9
2018-03-27T01:40:19.302Z,3.5
2018-03-27T01:42:19.050Z,10
2018-03-27T01:44:18.803Z,6.1
2018-03-27T01:46:18.844Z,3.7
2018-03-27T01:48:19.604Z,3.7
2018-03-27T01:50:19.370Z,3.4
2018-03-27T01:52:19.148Z,3.7
2018-03-27T01:54:18.899Z,9.1
2018-03-27T01:56:19.507Z,6.2
2018-03-27T01:58:19.279Z,6
2018-03-27T02:00:19.060Z,11.8
2018-03-27T02:02:18.854Z,6.9
2018-03-27T02:04:19.645Z,6
2018-03-27T02:06:19.200Z,7.1
2018-03-27T02:08:18.949Z,7.2
2018-03-27T02:10:19.186Z,6.8
2018-03-27T02:12:18.964Z,12.3
2018-03-27T02:14:18.778Z,7.1
2018-03-27T02:16:18.819Z,6.8
2018-03-27T02:18:19.669Z,6.2
2018-03-27T02:20:19.477Z,6.7
2018-03-27T02:22:19.227Z,4.1
2018-03-27T02:24:18.962Z,5
2018-03-27T02:26:19.466Z,9.1
2018-03-27T02:28:19.222Z,3.6
2018-03-27T02:30:18.981Z,7.9
2018-03-27T02:32:18.760Z,4.6
2018-03-27T02:34:19.547Z,12.3
2018-03-27T02:36:18.702Z,8.7
2018-03-27T02:38:19.442Z,4.6
2018-03-27T02:40:19.740Z,6.8
2018-03-27T02:42:19.500Z,5.7
2018-03-27T02:44:19.258Z,7.1
2018-03-27T02:46:18.836Z,9.5
2018-03-27T02:48:19.573Z,4.4
2018-03-27T02:50:19.405Z,4.2
2018-03-27T02:52:19.156Z,5.7
2018-03-27T02:54:18.920Z,7.3
2018-03-27T02:56:19.004Z,5.1
2018-03-27T02:58:18.755Z,9.6
2018-03-27T03:00:19.539Z,8.4
2018-03-27T03:02:19.318Z,6.1
2018-03-27T03:04:19.086Z,8.7
2018-03-27T03:06:18.696Z,5.4
2018-03-27T03:08:19.464Z,8.4
2018-03-27T03:10:18.711Z,5.2
2018-03-27T03:12:19.525Z,7.9
2018-03-27T03:14:19.270Z,7.4
2018-03-27T03:16:19.330Z,6.7
2018-03-27T03:18:19.173Z,8.8
2018-03-27T03:20:18.929Z,9.7
2018-03-27T03:22:18.697Z,6.3
2018-03-27T03:24:19.434Z,8
2018-03-27T03:26:19.006Z,11.7
2018-03-27T03:28:18.785Z,6
2018-03-27T03:30:19.621Z,13.1
2018-03-27T03:32:19.414Z,9.2
2018-03-27T03:34:19.162Z,10.2
2018-03-27T03:36:18.749Z,9.3
2018-03-27T03:38:19.499Z,10.5
2018-03-27T03:40:18.734Z,9.5
2018-03-27T03:42:19.505Z,7.6
2018-03-27T03:44:19.261Z,12.5
2018-03-27T03:46:19.338Z,9.5
2018-03-27T03:48:19.091Z,19.6
2018-03-27T03:50:18.844Z,9.3
2018-03-27T03:52:19.598Z,7.8
2018-03-27T03:54:19.359Z,11.7
2018-03-27T03:56:18.896Z,11.6
2018-03-27T03:58:19.684Z,8.3
2018-03-27T04:00:19.517Z,12.4
2018-03-27T04:02:19.301Z,14.3
2018-03-27T04:04:19.042Z,16.7
2018-03-27T04:06:19.560Z,10.2
2018-03-27T04:08:19.322Z,9.8
2018-03-27T04:10:19.574Z,9.6
2018-03-27T04:12:19.333Z,8.4
2018-03-27T04:14:19.076Z,11.6
2018-03-27T04:16:18.862Z,10
2018-03-27T04:18:18.718Z,16
2018-03-27T04:20:19.483Z,13.7
2018-03-27T04:22:19.270Z,11.6
2018-03-27T04:24:19.027Z,17.1
2018-03-27T04:26:19.605Z,13.3
2018-03-27T04:28:19.359Z,20.4
2018-03-27T04:30:19.126Z,10.8
2018-03-27T04:32:18.854Z,11.9
2018-03-27T04:34:19.591Z,18.2
2018-03-27T04:36:19.475Z,15
2018-03-27T04:38:19.257Z,10.5
2018-03-27T04:40:19.481Z,14.7
2018-03-27T04:42:19.597Z,10.4
2018-03-27T04:44:19.342Z,13.4
2018-03-27T04:46:19.060Z,12.5
2018-03-27T04:48:18.824Z,14.9
2018-03-27T04:50:19.576Z,19.7
2018-03-27T04:52:19.354Z,13.7
2018-03-27T04:54:19.123Z,12.7
2018-03-27T04:56:18.670Z,17.8
2018-03-27T04:58:19.427Z,14.9
2018-03-27T05:00:19.199Z,20
2018-03-27T05:02:18.973Z,17.4
2018-03-27T05:04:18.769Z,13.7
2018-03-27T05:06:19.285Z,20.7
2018-03-27T05:08:19.049Z,17.1
2018-03-27T05:10:19.291Z,12.2
2018-03-27T05:12:19.049Z,9.6
2018-03-27T05:14:18.804Z,20.1
2018-03-27T05:16:19.309Z,18.5
2018-03-27T05:18:19.158Z,14.1
2018-03-27T05:20:18.935Z,16
2018-03-27T05:22:18.700Z,15.5
2018-03-27T05:24:19.465Z,15.6
2018-03-27T05:26:19.131Z,19.6
2018-03-27T05:28:18.874Z,16.9
2018-03-27T05:30:19.634Z,15.1
2018-03-27T05:32:19.374Z,13
2018-03-27T05:34:19.142Z,15.4
2018-03-27T05:36:18.756Z,16
2018-03-27T05:38:19.504Z,12.7
2018-03-27T05:40:18.728Z,19.4
2018-03-27T05:42:19.487Z,14.5
2018-03-27T05:44:19.238Z,14.5
2018-03-27T05:46:19.388Z,16.4
2018-03-27T05:48:19.155Z,13.7
2018-03-27T05:50:18.964Z,18.4
2018-03-27T05:52:18.702Z,14.5
2018-03-27T05:54:19.459Z,16.4
2018-03-27T05:56:19.077Z,13.7
2018-03-27T05:58:18.835Z,13.9
2018-03-27T06:00:19.595Z,16.1
2018-03-27T06:02:19.347Z,16
2018-03-27T06:04:19.091Z,15.9
2018-03-27T06:06:18.698Z,16.3
2018-03-27T06:08:19.473Z,43.8
2018-03-27T06:10:18.682Z,17.9
2018-03-27T06:12:19.441Z,12.2
2018-03-27T06:14:19.167Z,12.3
2018-03-27T06:16:19.234Z,19.9
2018-03-27T06:18:19.080Z,18.4
2018-03-27T06:20:18.827Z,15.3
2018-03-27T06:22:19.563Z,13.8
2018-03-27T06:24:19.325Z,18
2018-03-27T06:26:19.587Z,16.6
2018-03-27T06:28:19.344Z,21.7
2018-03-27T06:30:19.107Z,14
2018-03-27T06:32:18.845Z,17.3
2018-03-27T06:34:19.587Z,17.3
2018-03-27T06:36:19.635Z,16.5
2018-03-27T06:38:19.379Z,15.2
2018-03-27T06:40:19.645Z,20.4
2018-03-27T06:42:19.467Z,17.6
2018-03-27T06:44:19.292Z,18.7
2018-03-27T06:46:18.810Z,20.6
2018-03-27T06:48:19.553Z,18.7
2018-03-27T06:50:19.337Z,15.6
2018-03-27T06:52:19.073Z,14
2018-03-27T06:54:18.792Z,17.7
2018-03-27T06:56:18.863Z,15.1
2018-03-27T06:58:19.618Z,17.4
2018-03-27T07:00:19.376Z,18.5
2018-03-27T07:02:19.158Z,11.3
2018-03-27T07:04:18.881Z,18.9
2018-03-27T07:06:19.477Z,11.2
2018-03-27T07:08:19.213Z,15.8
2018-03-27T07:10:19.404Z,14
2018-03-27T07:12:19.124Z,16.7
2018-03-27T07:14:18.892Z,23.8
2018-03-27T07:16:18.919Z,15.2
2018-03-27T07:18:18.717Z,19.4
2018-03-27T07:20:19.532Z,13.8
2018-03-27T07:22:19.276Z,10.4
2018-03-27T07:24:19.020Z,11.3
2018-03-27T07:26:19.500Z,10.4
2018-03-27T07:28:19.243Z,9.8
2018-03-27T07:30:19.016Z,14.2
2018-03-27T07:32:18.759Z,10.8
2018-03-27T07:34:19.497Z,10.3
2018-03-27T07:36:18.958Z,7.8
2018-03-27T07:38:18.683Z,9.5
2018-03-27T07:40:18.895Z,12.7
2018-03-27T07:42:19.619Z,10.2
2018-03-27T07:44:19.365Z,8.9
2018-03-27T07:46:18.961Z,15.9
2018-03-27T07:48:18.685Z,19.4
2018-03-27T07:50:19.421Z,13
2018-03-27T07:52:19.137Z,14.6
2018-03-27T07:54:18.864Z,10.5
2018-03-27T07:56:19.413Z,10.5
2018-03-27T07:58:19.219Z,11.6
2018-03-27T08:00:19.018Z,7.9
2018-03-27T08:02:18.755Z,17.1
2018-03-27T08:04:19.501Z,13.1
2018-03-27T08:06:18.960Z,11.4
2018-03-27T08:08:18.681Z,11.6
2018-03-27T08:10:18.887Z,9.8
2018-03-27T08:12:19.616Z,13.9
2018-03-27T08:14:19.352Z,7
2018-03-27T08:16:19.367Z,6.8
2018-03-27T08:18:19.161Z,6.2
2018-03-27T08:20:18.909Z,12.2
2018-03-27T08:22:19.634Z,11.7
2018-03-27T08:24:19.519Z,10.6
2018-03-27T08:26:19.119Z,11
2018-03-27T08:28:18.841Z,13.1
2018-03-27T08:30:19.605Z,11.3
2018-03-27T08:32:19.345Z,8.2
2018-03-27T08:34:19.070Z,5.8
2018-03-27T08:36:19.631Z,10.4
2018-03-27T08:38:19.447Z,11.3
2018-03-27T08:40:19.654Z,10.1
2018-03-27T08:42:19.386Z,7.8
2018-03-27T08:44:19.122Z,11.1
2018-03-27T08:46:19.118Z,10.2
2018-03-27T08:48:18.861Z,9.1
2018-03-27T08:50:19.604Z,8.7
2018-03-27T08:52:19.328Z,7.7
2018-03-27T08:54:19.083Z,11.5
2018-03-27T08:56:19.118Z,7.6
2018-03-27T08:58:18.858Z,6.2
2018-03-27T09:00:19.613Z,6.9
2018-03-27T09:02:19.341Z,10.9
2018-03-27T09:04:19.081Z,8
2018-03-27T09:06:19.251Z,9.5
2018-03-27T09:08:18.999Z,7.4
2018-03-27T09:10:19.190Z,6.9
2018-03-27T09:12:18.925Z,10.2
2018-03-27T09:14:19.649Z,8
2018-03-27T09:16:19.617Z,6.9
2018-03-27T09:18:19.425Z,3.9
2018-03-27T09:20:19.224Z,4.3
2018-03-27T09:22:18.962Z,6
2018-03-27T09:24:18.707Z,5.4
2018-03-27T09:26:19.170Z,6.4
2018-03-27T09:28:18.908Z,3.9
2018-03-27T09:30:19.693Z,4.7
2018-03-27T09:32:19.436Z,4.3
2018-03-27T09:34:19.202Z,5.3
2018-03-27T09:36:18.721Z,5.3
2018-03-27T09:38:19.460Z,7.4
2018-03-27T09:40:19.836Z,5.5
2018-03-27T09:42:19.607Z,6.9
2018-03-27T09:44:19.395Z,4.6
2018-03-27T09:46:18.842Z,12
2018-03-27T09:48:19.563Z,6
2018-03-27T09:50:19.302Z,5.1
2018-03-27T09:52:19.047Z,5.5
2018-03-27T09:54:18.804Z,5.4
2018-03-27T09:56:19.306Z,5.9
2018-03-27T09:58:19.049Z,3.5
2018-03-27T10:00:18.794Z,3.7
2018-03-27T10:02:19.576Z,4.7
2018-03-27T10:04:19.345Z,4.9
2018-03-27T10:06:19.350Z,2.9
2018-03-27T10:08:19.096Z,6.8
2018-03-27T10:10:19.304Z,3.2
2018-03-27T10:12:19.046Z,2.9
2018-03-27T10:14:18.779Z,4.6
2018-03-27T10:16:19.247Z,3.4
2018-03-27T10:18:19.040Z,3.4
2018-03-27T10:20:18.792Z,4.8
2018-03-27T10:22:19.529Z,5.9
2018-03-27T10:24:19.271Z,2.9
2018-03-27T10:26:18.818Z,4.6
2018-03-27T10:28:19.590Z,4.2
2018-03-27T10:30:19.383Z,3.2
2018-03-27T10:32:19.120Z,8.4
2018-03-27T10:34:18.853Z,3.6
2018-03-27T10:36:19.310Z,3.4
2018-03-27T10:38:19.045Z,4.7
2018-03-27T10:40:19.244Z,7.4
2018-03-27T10:42:18.998Z,5.6
2018-03-27T10:44:18.735Z,6.3
2018-03-27T10:46:18.739Z,2.6
2018-03-27T10:48:19.479Z,3.2
2018-03-27T10:50:19.239Z,5
2018-03-27T10:52:18.968Z,4.6
2018-03-27T10:54:18.699Z,7.2
2018-03-27T10:56:19.297Z,3.4
2018-03-27T10:58:19.041Z,3.3
2018-03-27T11:00:18.802Z,5.9
2018-03-27T11:02:19.558Z,5.5
2018-03-27T11:04:19.298Z,2.5
2018-03-27T11:06:19.463Z,1.9
2018-03-27T11:08:19.243Z,7.8
2018-03-27T11:10:19.455Z,2.9
2018-03-27T11:12:19.185Z,3.1
2018-03-27T11:14:18.921Z,2
2018-03-27T11:16:19.403Z,2.9
2018-03-27T11:18:19.266Z,2.7
2018-03-27T11:20:19.016Z,3
2018-03-27T11:22:18.762Z,3
2018-03-27T11:24:19.501Z,2.9
2018-03-27T11:26:19.059Z,8.1
2018-03-27T11:28:18.814Z,1.9
2018-03-27T11:30:19.579Z,3.4
2018-03-27T11:32:19.315Z,2
2018-03-27T11:34:19.051Z,3.1
2018-03-27T11:36:19.072Z,3.6
2018-03-27T11:38:18.812Z,4.8
2018-03-27T11:40:19.012Z,7.1
2018-03-27T11:42:18.767Z,3.4
2018-03-27T11:44:19.512Z,4.3
2018-03-27T11:46:19.561Z,3.6
2018-03-27T11:48:19.380Z,2.3
2018-03-27T11:50:19.152Z,1.8
2018-03-27T11:52:19.255Z,3.9
2018-03-27T11:54:18.995Z,2.6
2018-03-27T11:56:19.480Z,2.6
2018-03-27T11:58:19.229Z,2.5
2018-03-27T12:00:19.034Z,13.8
2018-03-27T12:02:18.778Z,3
2018-03-27T12:04:19.527Z,6.9
2018-03-27T12:06:19.049Z,2.3
2018-03-27T12:08:18.788Z,5.4
2018-03-27T12:10:19.027Z,5.3
2018-03-27T12:12:18.777Z,2
2018-03-27T12:14:19.545Z,2.5
2018-03-27T12:16:19.012Z,4.3
2018-03-27T12:18:18.825Z,2.6
2018-03-27T12:20:19.567Z,5.8
2018-03-27T12:22:19.317Z,3.3
2018-03-27T12:24:19.067Z,2.6
2018-03-27T12:26:19.582Z,3.5
2018-03-27T12:28:19.320Z,2.5
2018-03-27T12:30:19.168Z,2.2
2018-03-27T12:32:18.904Z,2.5
2018-03-27T12:34:19.674Z,1.6
2018-03-27T12:36:19.140Z,2.4
2018-03-27T12:38:18.877Z,2.3
2018-03-27T12:40:19.104Z,4
2018-03-27T12:42:18.889Z,2
2018-03-27T12:44:18.720Z,2.4
2018-03-27T12:46:19.237Z,3.9
2018-03-27T12:48:18.969Z,2.5
2018-03-27T12:50:18.734Z,3
2018-03-27T12:52:19.495Z,2.8
2018-03-27T12:54:19.229Z,2.3
2018-03-27T12:56:19.535Z,1.4
2018-03-27T12:58:19.277Z,2.4
2018-03-27T13:00:19.047Z,1.9
2018-03-27T13:02:18.830Z,2.5
2018-03-27T13:04:19.588Z,2.2
2018-03-27T13:06:18.789Z,1.9
2018-03-27T13:08:19.523Z,1.7
2018-03-27T13:10:18.744Z,6
2018-03-27T13:12:19.508Z,5.9
2018-03-27T13:14:19.255Z,8.4
2018-03-27T13:16:18.802Z,1.1
2018-03-27T13:18:19.628Z,2
2018-03-27T13:20:19.408Z,1.7
2018-03-27T13:22:19.150Z,3.7
2018-03-27T13:24:18.912Z,1.5
2018-03-27T13:26:19.405Z,3.4
2018-03-27T13:28:19.163Z,2.4
2018-03-27T13:30:18.929Z,2.4
2018-03-27T13:32:19.860Z,3.6
2018-03-27T13:34:19.623Z,3
2018-03-27T13:36:19.281Z,3
2018-03-27T13:38:19.047Z,5.8
2018-03-27T13:40:19.259Z,2.3
2018-03-27T13:42:19.014Z,2.3
2018-03-27T13:44:18.759Z,2.7
2018-03-27T13:46:18.783Z,13.6
2018-03-27T13:48:19.546Z,3.2
2018-03-27T13:50:19.434Z,1.4
2018-03-27T13:52:19.202Z,2.6
2018-03-27T13:54:18.980Z,4.9
2018-03-27T13:56:19.086Z,1.8
2018-03-27T13:58:18.851Z,3.9
2018-03-27T14:00:19.658Z,2
2018-03-27T14:02:19.295Z,2.8
2018-03-27T14:04:19.045Z,1.5
2018-03-27T14:06:18.701Z,3.1
2018-03-27T14:08:19.449Z,1.9
2018-03-27T14:10:19.693Z,1.8
2018-03-27T14:12:19.458Z,3.3
2018-03-27T14:14:19.231Z,2.4
2018-03-27T14:16:19.242Z,1.6
2018-03-27T14:18:19.069Z,1.2
2018-03-27T14:20:18.968Z,2.1
2018-03-27T14:22:18.743Z,3.2
2018-03-27T14:24:19.505Z,3
2018-03-27T14:26:18.985Z,2.1
2018-03-27T14:28:18.735Z,1.6
2018-03-27T14:30:19.509Z,3.2
2018-03-27T14:32:19.253Z,9.5
2018-03-27T14:34:18.995Z,2.6
2018-03-27T14:36:18.990Z,2.5
2018-03-27T14:38:18.822Z,2.5
2018-03-27T14:40:19.051Z,2.3
2018-03-27T14:42:18.793Z,3.1
2018-03-27T14:44:19.550Z,2.7
2018-03-27T14:46:19.660Z,2.4
2018-03-27T14:48:19.391Z,2.2
2018-03-27T14:50:19.151Z,4.4
2018-03-27T14:52:18.906Z,3.4
2018-03-27T14:54:19.665Z,3.5
2018-03-27T14:56:19.143Z,4.8
2018-03-27T14:58:18.885Z,3.7
2018-03-27T15:00:19.677Z,2.2
2018-03-27T15:02:19.438Z,6.5
2018-03-27T15:04:19.219Z,5.8
2018-03-27T15:06:18.751Z,3.8
2018-03-27T15:08:19.511Z,2.9
2018-03-27T15:10:18.757Z,2.7
2018-03-27T15:12:19.555Z,5.3
2018-03-27T15:14:19.317Z,2.8
2018-03-27T15:16:18.862Z,5.4
2018-03-27T15:18:19.702Z,4
2018-03-27T15:20:19.612Z,2.6
2018-03-27T15:22:19.380Z,7.2
2018-03-27T15:24:19.137Z,2.8
2018-03-27T15:26:18.708Z,3.1
2018-03-27T15:28:19.461Z,2
2018-03-27T15:30:19.234Z,1.9
2018-03-27T15:32:18.990Z,2.8
2018-03-27T15:34:18.743Z,3.3
2018-03-27T15:36:19.286Z,3.9
2018-03-27T15:38:19.045Z,3.9
2018-03-27T15:40:19.268Z,4.3
2018-03-27T15:42:19.025Z,3.2
2018-03-27T15:44:18.786Z,4.9
2018-03-27T15:46:19.266Z,4.3
2018-03-27T15:48:19.030Z,5
2018-03-27T15:50:18.811Z,3.5
2018-03-27T15:52:19.569Z,4.7
2018-03-27T15:54:19.325Z,4.1
2018-03-27T15:56:19.351Z,3.5
2018-03-27T15:58:19.122Z,3.5
2018-03-27T16:00:18.896Z,3.8
2018-03-27T16:02:19.657Z,2.6
2018-03-27T16:04:19.399Z,4.2
2018-03-27T16:06:18.879Z,3.9
2018-03-27T16:08:19.636Z,3.4
2018-03-27T16:10:18.885Z,7.4
2018-03-27T16:12:19.642Z,2.4
2018-03-27T16:14:19.408Z,2.4
2018-03-27T16:16:19.435Z,3.9
2018-03-27T16:18:19.376Z,3.3
2018-03-27T16:20:19.153Z,6.2
2018-03-27T16:22:18.868Z,3
2018-03-27T16:24:19.596Z,3
2018-03-27T16:26:19.098Z,4.4
2018-03-27T16:28:18.826Z,4.2
2018-03-27T16:30:19.578Z,4.4
2018-03-27T16:32:19.289Z,7.2
2018-03-27T16:34:19.005Z,3.8
2018-03-27T16:36:19.570Z,7
2018-03-27T16:38:19.284Z,2.7
2018-03-27T16:40:19.458Z,5.5
2018-03-27T16:42:19.170Z,12.3
2018-03-27T16:44:18.892Z,5.5
2018-03-27T16:46:19.278Z,5.4
2018-03-27T16:48:18.996Z,6.9
2018-03-27T16:50:18.723Z,5.9
2018-03-27T16:52:19.442Z,4.5
2018-03-27T16:54:19.163Z,3.8
2018-03-27T16:56:19.634Z,10.2
2018-03-27T16:58:19.359Z,5.5
2018-03-27T17:00:19.121Z,4.3
2018-03-27T17:02:18.851Z,6.8
2018-03-27T17:04:19.569Z,4.5
2018-03-27T17:06:18.983Z,4.1
2018-03-27T17:08:18.704Z,4.5
2018-03-27T17:10:18.915Z,7.7
2018-03-27T17:12:19.645Z,3.9
2018-03-27T17:14:19.355Z,3.8
2018-03-27T17:16:19.265Z,5.4
2018-03-27T17:18:19.042Z,3.5
2018-03-27T17:20:18.794Z,6.9
2018-03-27T17:22:19.495Z,3.3
2018-03-27T17:24:19.195Z,5.4
2018-03-27T17:26:19.572Z,3.3
2018-03-27T17:28:19.282Z,4.9
2018-03-27T17:30:19.019Z,4.6
2018-03-27T17:32:18.745Z,5.2
2018-03-27T17:34:19.452Z,2.8
2018-03-27T17:36:19.427Z,5.1
2018-03-27T17:38:19.152Z,3.9
2018-03-27T17:40:19.288Z,8.6
2018-03-27T17:42:19.009Z,3.2
2018-03-27T17:44:18.728Z,6.9
2018-03-27T17:46:18.646Z,4.7
2018-03-27T17:48:19.368Z,6.4
2018-03-27T17:50:19.208Z,7.3
2018-03-27T17:52:18.932Z,6.7
2018-03-27T17:54:18.658Z,5.7
2018-03-27T17:56:18.776Z,5.4
2018-03-27T17:58:19.474Z,9.6
2018-03-27T18:00:19.273Z,5.1
2018-03-27T18:02:18.973Z,5.6
2018-03-27T18:04:18.703Z,7.7
2018-03-27T18:06:19.078Z,2.8
2018-03-27T18:08:18.791Z,4.3
2018-03-27T18:10:18.941Z,5.3
2018-03-27T18:12:18.643Z,6.1
2018-03-27T18:14:19.346Z,4.6
2018-03-27T18:16:18.730Z,2.7
2018-03-27T18:18:19.518Z,4.3
2018-03-27T18:20:19.245Z,4.5
2018-03-27T18:22:18.960Z,4.6
2018-03-27T18:24:18.666Z,6.9
2018-03-27T18:26:19.569Z,6.6
2018-03-27T18:28:19.282Z,4.9
2018-03-27T18:30:19.013Z,3.7
2018-03-27T18:32:19.436Z,7.2
2018-03-27T18:34:19.153Z,8.5
2018-03-27T18:36:19.585Z,4.9
2018-03-27T18:38:19.300Z,4.4
2018-03-27T18:40:19.448Z,4.2
2018-03-27T18:42:19.158Z,7
2018-03-27T18:44:18.874Z,5.3
2018-03-27T18:46:18.802Z,5.7
2018-03-27T18:48:19.504Z,3.9
2018-03-27T18:50:19.286Z,4.7
2018-03-27T18:52:18.997Z,5
2018-03-27T18:54:18.751Z,10.1
2018-03-27T18:56:18.667Z,5.8
2018-03-27T18:58:19.381Z,6.9
2018-03-27T19:00:19.107Z,4.1
2018-03-27T19:02:18.822Z,4.3
2018-03-27T19:04:19.523Z,8.4
2018-03-27T19:06:19.446Z,5.2
2018-03-27T19:08:19.156Z,5
2018-03-27T19:10:19.291Z,4.6
2018-03-27T19:12:18.987Z,4
2018-03-27T19:14:18.681Z,6.4
2018-03-27T19:16:19.150Z,6.9
2018-03-27T19:18:18.912Z,4.9
2018-03-27T19:20:19.654Z,7.8
2018-03-27T19:22:19.366Z,5
2018-03-27T19:24:19.082Z,10.3
2018-03-27T19:26:19.472Z,7
2018-03-27T19:28:19.182Z,3.8
2018-03-27T19:30:18.928Z,2.6
2018-03-27T19:32:19.329Z,5.4
2018-03-27T19:34:19.041Z,5.1
2018-03-27T19:36:18.945Z,5.6
2018-03-27T19:38:18.640Z,6.9
2018-03-27T19:40:18.801Z,5.2
2018-03-27T19:42:19.511Z,4.8
2018-03-27T19:44:19.220Z,5.9
2018-03-27T19:46:19.626Z,4.5
2018-03-27T19:48:19.329Z,5
2018-03-27T19:50:19.068Z,5.1
2018-03-27T19:52:18.791Z,6.1
2018-03-27T19:54:19.498Z,4.8
2018-03-27T19:56:18.873Z,4.5
2018-03-27T19:58:19.581Z,7.5
2018-03-27T20:00:19.331Z,6
2018-03-27T20:02:19.046Z,6.4
2018-03-27T20:04:18.744Z,7.3
2018-03-27T20:06:19.106Z,5.5
2018-03-27T20:08:18.833Z,7.7
2018-03-27T20:10:18.972Z,6
2018-03-27T20:12:18.681Z,6.1
2018-03-27T20:14:19.382Z,7.8
2018-03-27T20:16:19.292Z,4.7
2018-03-27T20:18:19.068Z,7.9
2018-03-27T20:20:18.809Z,5
2018-03-27T20:22:19.513Z,7.2
2018-03-27T20:24:19.243Z,5.3
2018-03-27T20:26:19.621Z,7.6
2018-03-27T20:28:19.324Z,9
2018-03-27T20:30:19.073Z,5.9
2018-03-27T20:32:18.778Z,4.8
2018-03-27T20:34:19.474Z,6.2
2018-03-27T20:36:18.890Z,7.8
2018-03-27T20:38:19.596Z,5.8
2018-03-27T20:40:18.727Z,5.8
2018-03-27T20:42:19.428Z,5.9
2018-03-27T20:44:19.135Z,3.8
2018-03-27T20:46:19.500Z,6.7
2018-03-27T20:48:19.194Z,8.6
2018-03-27T20:50:18.917Z,5.4
2018-03-27T20:52:19.622Z,9.6
2018-03-27T20:54:19.338Z,13.8
2018-03-27T20:56:18.725Z,5.2
2018-03-27T20:58:19.433Z,5.4
2018-03-27T21:00:19.156Z,7.7
2018-03-27T21:02:18.868Z,3.9
2018-03-27T21:04:19.578Z,6.7
2018-03-27T21:06:18.939Z,5.7
2018-03-27T21:08:18.632Z,8.3
2018-03-27T21:10:18.758Z,6.5
2018-03-27T21:12:19.448Z,5.8
2018-03-27T21:14:19.146Z,8.4
2018-03-27T21:16:19.063Z,7.1
2018-03-27T21:18:18.838Z,4.1
2018-03-27T21:20:19.568Z,4.1
2018-03-27T21:22:19.258Z,5.1
2018-03-27T21:24:18.950Z,3.6
2018-03-27T21:26:19.386Z,2.9
2018-03-27T21:28:19.090Z,5.1
2018-03-27T21:30:18.818Z,6.3
2018-03-27T21:32:19.508Z,9
2018-03-27T21:34:19.225Z,6.6
2018-03-27T21:36:18.707Z,6.4
2018-03-27T21:38:19.411Z,5.6
2018-03-27T21:40:19.561Z,5
2018-03-27T21:42:19.256Z,8.2
2018-03-27T21:44:18.948Z,3.5
2018-03-27T21:46:19.304Z,4.4
2018-03-27T21:48:18.992Z,3.5
2018-03-27T21:50:18.728Z,6.6
2018-03-27T21:52:19.434Z,6
2018-03-27T21:54:19.161Z,7.9
2018-03-27T21:56:18.719Z,5.9
2018-03-27T21:58:19.489Z,5.8
2018-03-27T22:00:19.232Z,3.6
2018-03-27T22:02:18.922Z,17.3
2018-03-27T22:04:19.622Z,3.7
2018-03-27T22:06:19.002Z,4.7
2018-03-27T22:08:18.696Z,4.5
2018-03-27T22:10:18.827Z,5.9
2018-03-27T22:12:19.545Z,3.3
2018-03-27T22:14:19.238Z,6
2018-03-27T22:16:19.590Z,5
2018-03-27T22:18:19.350Z,8.9
2018-03-27T22:20:19.071Z,4.2
2018-03-27T22:22:18.771Z,6.3
2018-03-27T22:24:19.473Z,5.1
2018-03-27T22:26:18.814Z,3.4
2018-03-27T22:28:19.503Z,8.6
2018-03-27T22:30:19.205Z,6.9
2018-03-27T22:32:18.872Z,6.8
2018-03-27T22:34:19.554Z,4.5
2018-03-27T22:36:18.846Z,7.4
2018-03-27T22:38:19.514Z,6.4
2018-03-27T22:40:19.650Z,5.9
2018-03-27T22:42:19.317Z,4.7
2018-03-27T22:44:19.007Z,7.4
2018-03-27T22:46:18.800Z,5.2
2018-03-27T22:48:19.460Z,9
2018-03-27T22:50:19.177Z,2.9
2018-03-27T22:52:18.840Z,4.2
2018-03-27T22:54:19.513Z,8.2
2018-03-27T22:56:18.790Z,5
2018-03-27T22:58:19.459Z,5.1
2018-03-27T23:00:19.158Z,7.3
2018-03-27T23:02:18.830Z,2.8
2018-03-27T23:04:19.502Z,10.5
2018-03-27T23:06:18.764Z,3.3
2018-03-27T23:08:19.424Z,8.6
2018-03-27T23:10:19.497Z,3.2
2018-03-27T23:12:19.154Z,4.3
2018-03-27T23:14:18.825Z,4.3
2018-03-27T23:16:18.621Z,4.4
2018-03-27T23:18:19.340Z,5.6
2018-03-27T23:20:19.040Z,4.8
2018-03-27T23:22:18.711Z,5.3
2018-03-27T23:24:19.370Z,4.4
2018-03-27T23:26:18.654Z,4.5
2018-03-27T23:28:19.315Z,5.2
2018-03-27T23:30:18.994Z,4.8
2018-03-27T23:32:18.663Z,6.2
2018-03-27T23:34:19.333Z,7.7
2018-03-27T23:36:18.655Z,5.1
2018-03-27T23:38:19.324Z,10
2018-03-27T23:40:19.389Z,5.5
2018-03-27T23:42:19.055Z,4.8
2018-03-27T23:44:18.715Z,13.5
2018-03-27T23:46:19.008Z,3.3
2018-03-27T23:48:18.669Z,6.8
2018-03-27T23:50:19.367Z,4.1
2018-03-27T23:52:19.029Z,2.6
2018-03-27T23:54:18.691Z,6.6
2018-03-27T23:56:18.960Z,4.8
2018-03-27T23:58:18.613Z,3.5
